createdAt,value
2022-12-15T00:02:38.066Z,4.10
2022-12-15T00:06:58.884Z,1.10
2022-12-15T00:11:20.769Z,2.53
2022-12-15T00:15:41.408Z,3.17
2022-12-15T00:20:03.151Z,4.23
2022-12-15T00:24:24.425Z,1.73
2022-12-15T00:28:44.802Z,7.60
2022-12-15T00:33:05.315Z,4.13
2022-12-15T00:37:27.362Z,3.30
2022-12-15T00:41:30.427Z,3.97
2022-12-15T00:45:47.511Z,3.30
2022-12-15T00:50:08.247Z,2.97
2022-12-15T00:54:30.432Z,4.07
2022-12-15T00:58:51.058Z,5.20
2022-12-15T01:03:12.118Z,8.03
2022-12-15T01:07:33.287Z,4.37
2022-12-15T01:11:55.394Z,1.90
2022-12-15T01:16:16.202Z,4.20
2022-12-15T01:20:19.359Z,3.00
2022-12-15T01:24:22.382Z,2.80
2022-12-15T01:28:26.847Z,1.70
2022-12-15T01:32:30.222Z,9.83
2022-12-15T01:36:33.291Z,3.00
2022-12-15T01:40:50.234Z,8.60
2022-12-15T01:44:55.377Z,3.93
2022-12-15T01:49:09.145Z,3.73
2022-12-15T01:53:14.071Z,1.67
2022-12-15T01:57:21.818Z,4.90
2022-12-15T02:01:26.452Z,11.63
2022-12-15T02:05:31.868Z,3.07
2022-12-15T02:09:34.971Z,3.23
2022-12-15T02:13:50.041Z,3.43
2022-12-15T02:18:07.059Z,3.20
2022-12-15T02:22:25.144Z,1.60
2022-12-15T02:27:16.140Z,4.43
2022-12-15T02:31:41.989Z,2.20
2022-12-15T02:36:06.984Z,6.27
2022-12-15T02:40:12.015Z,2.40
2022-12-15T02:44:19.197Z,3.03
2022-12-15T02:48:33.723Z,3.63
2022-12-15T02:52:50.294Z,2.17
2022-12-15T02:57:04.027Z,4.93
2022-12-15T03:01:17.133Z,3.03
2022-12-15T03:05:24.117Z,2.77
2022-12-15T03:09:27.251Z,5.57
2022-12-15T03:13:30.665Z,4.07
2022-12-15T03:17:34.094Z,6.13
2022-12-15T03:21:38.474Z,8.83
2022-12-15T03:25:41.572Z,3.27
2022-12-15T03:29:44.633Z,5.07
2022-12-15T03:33:47.672Z,13.27
2022-12-15T03:37:52.077Z,5.53
2022-12-15T03:41:55.140Z,3.53
2022-12-15T03:45:58.242Z,12.40
2022-12-15T03:50:01.298Z,1.60
2022-12-15T03:54:05.755Z,9.90
2022-12-15T03:58:08.847Z,9.87
2022-12-15T04:02:13.098Z,3.53
2022-12-15T04:06:16.265Z,7.63
2022-12-15T04:10:20.909Z,1.50
2022-12-15T04:14:23.973Z,6.13
2022-12-15T04:18:27.039Z,2.37
2022-12-15T04:22:30.065Z,5.07
2022-12-15T04:26:52.064Z,2.13
2022-12-15T04:31:16.009Z,6.67
2022-12-15T04:35:36.747Z,3.27
2022-12-15T04:39:59.532Z,5.07
2022-12-15T04:44:21.839Z,6.77
2022-12-15T04:48:42.519Z,5.93
2022-12-15T04:53:02.875Z,2.30
2022-12-15T04:57:23.676Z,2.10
2022-12-15T05:01:46.478Z,2.93
2022-12-15T05:06:07.161Z,2.83
2022-12-15T05:10:27.664Z,3.27
2022-12-15T05:14:49.637Z,2.37
2022-12-15T05:19:11.488Z,3.67
2022-12-15T05:23:33.098Z,8.83
2022-12-15T05:27:53.596Z,6.30
2022-12-15T05:31:56.983Z,3.37
2022-12-15T05:36:01.445Z,10.07
2022-12-15T05:40:04.834Z,22.43
2022-12-15T05:44:08.426Z,13.23
2022-12-15T05:48:11.527Z,5.07
2022-12-15T05:52:15.925Z,7.20
2022-12-15T05:56:18.979Z,3.17
2022-12-15T06:00:22.303Z,3.90
2022-12-15T06:04:25.646Z,3.73
2022-12-15T06:08:30.539Z,8.03
2022-12-15T06:12:33.639Z,7.57
2022-12-15T06:16:42.564Z,3.83
2022-12-15T06:20:58.832Z,8.13
2022-12-15T06:25:03.557Z,2.53
2022-12-15T06:29:08.978Z,7.70
2022-12-15T06:33:12.212Z,4.23
2022-12-15T06:37:15.429Z,18.07
2022-12-15T06:41:22.507Z,7.93
2022-12-15T06:45:25.575Z,6.03
2022-12-15T06:49:28.625Z,4.37
2022-12-15T06:53:32.182Z,2.77
2022-12-15T06:57:37.397Z,3.93
2022-12-15T07:01:41.938Z,12.57
2022-12-15T07:05:46.479Z,8.00
2022-12-15T07:09:49.860Z,5.20
2022-12-15T07:13:54.949Z,3.20
2022-12-15T07:17:58.012Z,2.20
2022-12-15T07:22:01.550Z,2.80
2022-12-15T07:26:11.089Z,2.97
2022-12-15T07:30:17.670Z,4.43
2022-12-15T07:34:21.004Z,9.67
2022-12-15T07:38:24.154Z,7.07
2022-12-15T07:42:30.174Z,3.97
2022-12-15T07:46:34.710Z,12.73
2022-12-15T07:50:39.736Z,1.57
2022-12-15T07:54:42.816Z,1.03
2022-12-15T07:58:46.025Z,3.40
2022-12-15T08:02:50.832Z,3.40
2022-12-15T08:06:55.071Z,7.97
2022-12-15T08:10:58.128Z,10.07
2022-12-15T08:15:01.247Z,8.33
2022-12-15T08:19:06.910Z,7.77
2022-12-15T08:23:09.994Z,10.37
2022-12-15T08:27:13.276Z,6.07
2022-12-15T08:31:18.780Z,3.47
2022-12-15T08:35:54.404Z,7.00
2022-12-15T08:39:46.434Z,7.50
2022-12-15T08:43:50.471Z,6.50
2022-12-15T08:47:53.586Z,8.77
2022-12-15T08:51:58.074Z,5.33
2022-12-15T08:56:03.739Z,4.27
2022-12-15T09:00:08.072Z,7.80
2022-12-15T09:04:11.703Z,10.37
2022-12-15T09:08:18.826Z,10.07
2022-12-15T09:12:22.788Z,10.30
2022-12-15T09:16:29.017Z,13.73
2022-12-15T09:20:32.675Z,16.40
2022-12-15T09:24:37.859Z,18.60
2022-12-15T09:28:43.034Z,11.47
2022-12-15T09:32:46.811Z,18.07
2022-12-15T09:36:50.309Z,13.00
2022-12-15T09:40:55.299Z,10.57
2022-12-15T09:45:04.419Z,10.93
2022-12-15T09:49:18.163Z,13.50
2022-12-15T09:53:53.635Z,32.70
2022-12-15T09:57:55.061Z,12.18
2022-12-15T10:02:19.948Z,17.83
2022-12-15T10:06:33.111Z,16.02
2022-12-15T10:10:54.383Z,11.68
2022-12-15T10:15:12.090Z,18.83
2022-12-15T10:19:20.339Z,14.10
2022-12-15T10:23:23.438Z,14.75
2022-12-15T10:28:00.539Z,14.23
2022-12-15T10:32:11.383Z,11.73
2022-12-15T10:36:17.656Z,11.75
2022-12-15T10:40:50.245Z,10.30
2022-12-15T10:44:56.491Z,8.80
2022-12-15T10:49:22.310Z,10.38
2022-12-15T10:53:41.259Z,7.47
2022-12-15T10:57:59.917Z,6.47
2022-12-15T11:02:29.803Z,8.95
2022-12-15T11:06:37.085Z,10.60
2022-12-15T11:11:18.433Z,14.82
2022-12-15T11:15:40.432Z,12.15
2022-12-15T11:19:56.583Z,6.85
2022-12-15T11:24:10.752Z,8.60
2022-12-15T11:28:19.528Z,14.98
2022-12-15T11:32:26.322Z,9.38
2022-12-15T11:36:58.483Z,17.05
2022-12-15T11:41:12.640Z,17.30
2022-12-15T11:45:22.424Z,10.73
2022-12-15T11:49:55.694Z,14.35
2022-12-15T11:54:11.208Z,21.17
2022-12-15T11:58:40.409Z,22.23
2022-12-15T12:03:21.262Z,17.95
2022-12-15T12:07:40.136Z,13.65
2022-12-15T12:11:51.525Z,19.30
2022-12-15T12:16:09.476Z,14.65
2022-12-15T12:20:21.901Z,11.00
2022-12-15T12:24:31.704Z,15.65
2022-12-15T12:28:44.477Z,14.18
2022-12-15T12:33:24.492Z,15.45
2022-12-15T12:37:34.995Z,11.25
2022-12-15T12:41:45.168Z,16.45
2022-12-15T12:45:56.106Z,13.10
2022-12-15T12:50:04.866Z,25.33
2022-12-15T12:54:41.912Z,13.82
2022-12-15T12:58:45.476Z,27.02
2022-12-15T13:02:58.114Z,15.27
2022-12-15T13:07:08.853Z,19.58
2022-12-15T13:12:00.874Z,21.08
2022-12-15T13:16:10.007Z,22.35
2022-12-15T13:20:32.182Z,15.18
2022-12-15T13:24:42.807Z,21.20
2022-12-15T13:28:50.696Z,21.27
2022-12-15T13:32:56.217Z,26.98
2022-12-15T13:37:03.173Z,26.58
2022-12-15T13:41:23.445Z,19.05
2022-12-15T13:45:44.612Z,23.65
2022-12-15T13:54:29.053Z,22.00
2022-12-15T13:58:42.012Z,22.23
2022-12-15T14:02:45.688Z,21.40
2022-12-15T14:06:51.636Z,30.17
2022-12-15T14:10:56.779Z,23.20
2022-12-15T14:15:01.444Z,18.30
2022-12-15T14:19:14.219Z,19.02
2022-12-15T14:23:20.906Z,20.92
2022-12-15T14:27:25.591Z,20.25
2022-12-15T14:31:32.259Z,27.80
2022-12-15T14:35:42.418Z,25.15
2022-12-15T14:39:50.401Z,19.63
2022-12-15T14:44:37.085Z,18.30
2022-12-15T14:48:40.996Z,18.60
2022-12-15T14:52:46.285Z,20.42
2022-12-15T14:56:58.133Z,16.83
2022-12-15T15:01:02.830Z,15.73
2022-12-15T15:03:11.640Z,36.67
2022-12-15T15:05:28.080Z,21.05
2022-12-15T15:09:34.213Z,23.05
2022-12-15T15:13:40.891Z,24.65
2022-12-15T15:17:50.047Z,12.55
2022-12-15T15:21:55.149Z,23.30
2022-12-15T15:26:08.171Z,20.00
2022-12-15T15:30:22.585Z,16.67
2022-12-15T15:34:26.991Z,23.60
2022-12-15T15:38:35.065Z,18.73
2022-12-15T15:42:39.096Z,17.67
2022-12-15T15:46:47.696Z,15.47
2022-12-15T15:51:14.853Z,16.70
2022-12-15T15:55:26.660Z,22.07
2022-12-15T15:59:31.164Z,21.23
2022-12-15T16:03:35.463Z,12.48
2022-12-15T16:07:39.795Z,18.00
2022-12-15T16:11:45.373Z,13.60
2022-12-15T16:15:49.567Z,11.47
2022-12-15T16:19:52.805Z,15.90
2022-12-15T16:23:58.048Z,16.93
2022-12-15T16:28:02.568Z,17.67
2022-12-15T16:32:06.055Z,15.23
2022-12-15T16:36:13.203Z,28.67
2022-12-15T16:40:22.086Z,18.63
2022-12-15T16:44:29.396Z,18.07
2022-12-15T16:48:33.254Z,7.00
2022-12-15T16:52:36.600Z,20.73
2022-12-15T16:56:39.886Z,19.43
2022-12-15T17:00:46.614Z,15.60
2022-12-15T17:04:50.375Z,11.33
2022-12-15T17:08:56.198Z,14.93
2022-12-15T17:13:08.690Z,20.83
2022-12-15T17:17:16.049Z,17.20
2022-12-15T17:21:21.314Z,28.37
2022-12-15T17:25:46.092Z,16.53
2022-12-15T17:29:49.827Z,25.17
2022-12-15T17:33:54.325Z,18.43
2022-12-15T17:37:57.490Z,28.23
2022-12-15T17:42:02.098Z,18.87
2022-12-15T17:46:06.160Z,23.30
2022-12-15T17:50:11.548Z,32.13
2022-12-15T17:54:16.019Z,37.70
2022-12-15T17:58:20.736Z,13.80
2022-12-15T18:02:24.125Z,19.87
2022-12-15T18:06:29.074Z,19.83
2022-12-15T18:10:35.022Z,17.40
2022-12-15T18:14:39.261Z,24.00
2022-12-15T18:18:44.293Z,16.53
2022-12-15T18:22:50.159Z,15.73
2022-12-15T18:26:53.954Z,21.83
2022-12-15T18:31:01.823Z,25.00
2022-12-15T18:35:14.262Z,23.60
2022-12-15T18:39:24.037Z,15.23
2022-12-15T18:43:31.263Z,11.63
2022-12-15T18:47:34.658Z,13.90
2022-12-15T18:51:39.178Z,12.97
2022-12-15T18:55:43.858Z,26.30
2022-12-15T18:59:47.117Z,35.37
2022-12-15T19:03:50.970Z,19.40
2022-12-15T19:07:59.811Z,12.17
2022-12-15T19:12:19.703Z,12.97
2022-12-15T19:16:23.310Z,17.03
2022-12-15T19:20:44.054Z,21.73
2022-12-15T19:24:56.051Z,13.90
2022-12-15T19:29:00.883Z,24.27
2022-12-15T19:33:04.254Z,26.37
2022-12-15T19:37:12.708Z,15.23
2022-12-15T19:41:18.658Z,27.40
2022-12-15T19:45:25.575Z,32.33
2022-12-15T19:49:29.127Z,26.83
2022-12-15T19:53:33.043Z,12.03
2022-12-15T19:57:36.499Z,21.93
2022-12-15T20:01:41.088Z,12.57
2022-12-15T20:05:44.635Z,34.03
2022-12-15T20:09:47.723Z,18.33
2022-12-15T20:13:51.964Z,14.73
2022-12-15T20:17:57.533Z,12.87
2022-12-15T20:22:03.500Z,22.33
2022-12-15T20:26:07.442Z,18.37
2022-12-15T20:30:18.874Z,20.70
2022-12-15T20:34:23.634Z,23.17
2022-12-15T20:38:31.826Z,28.87
2022-12-15T20:42:35.144Z,15.50
2022-12-15T20:46:39.155Z,18.53
2022-12-15T20:50:47.468Z,27.83
2022-12-15T20:54:51.295Z,13.80
2022-12-15T20:58:57.135Z,13.07
2022-12-15T21:03:01.032Z,18.77
2022-12-15T21:07:07.387Z,14.40
2022-12-15T21:11:16.847Z,17.80
2022-12-15T21:15:21.857Z,6.87
2022-12-15T21:19:25.311Z,10.20
2022-12-15T21:23:32.390Z,12.77
2022-12-15T21:27:35.451Z,40.10
2022-12-15T21:31:38.828Z,11.53
2022-12-15T21:35:46.145Z,28.73
2022-12-15T21:39:50.645Z,17.13
2022-12-15T21:43:54.983Z,26.90
2022-12-15T21:48:16.108Z,13.20
2022-12-15T21:52:19.834Z,17.83
2022-12-15T21:56:24.250Z,8.60
2022-12-15T22:00:27.669Z,6.30
2022-12-15T22:04:33.104Z,18.10
2022-12-15T22:08:36.335Z,22.33
2022-12-15T22:12:42.852Z,19.47
2022-12-15T22:16:45.900Z,10.47
2022-12-15T22:20:50.064Z,11.83
2022-12-15T22:24:53.117Z,21.47
2022-12-15T22:29:00.564Z,17.70
2022-12-15T22:33:06.876Z,11.03
2022-12-15T22:37:10.407Z,7.07
2022-12-15T22:41:19.403Z,7.47
2022-12-15T22:45:25.017Z,15.60
2022-12-15T22:49:31.325Z,11.67
2022-12-15T22:53:36.346Z,10.90
2022-12-15T22:57:39.554Z,7.37
2022-12-15T23:01:44.910Z,17.57
2022-12-15T23:05:48.944Z,11.70
2022-12-15T23:10:12.311Z,12.17
2022-12-15T23:14:17.134Z,12.30
2022-12-15T23:18:21.566Z,12.90
2022-12-15T23:22:24.669Z,13.67
2022-12-15T23:26:27.802Z,16.60
2022-12-15T23:30:30.985Z,7.40
2022-12-15T23:34:35.441Z,19.47
2022-12-15T23:38:38.657Z,9.63
2022-12-15T23:42:41.757Z,11.50
2022-12-15T23:46:46.807Z,8.03
2022-12-15T23:50:51.368Z,16.30
2022-12-15T23:54:54.987Z,5.33
2022-12-15T23:59:00.432Z,14.77
